createdAt,value
2023-04-22T00:00:40.617Z,12.03
2023-04-22T00:03:07.023Z,11.27
2023-04-22T00:05:33.475Z,12.06
2023-04-22T00:07:59.807Z,10.22
2023-04-22T00:10:26.141Z,10.73
2023-04-22T00:12:52.476Z,10.33
2023-04-22T00:15:18.786Z,9.81
2023-04-22T00:17:45.129Z,10.33
2023-04-22T00:20:11.492Z,10.97
2023-04-22T00:22:37.810Z,13.28
2023-04-22T00:25:04.132Z,12.20
2023-04-22T00:27:30.460Z,11.16
2023-04-22T00:29:56.777Z,10.66
2023-04-22T00:32:23.162Z,12.18
2023-04-22T00:34:49.513Z,11.87
2023-04-22T00:37:15.852Z,12.50
2023-04-22T00:39:42.556Z,12.43
2023-04-22T00:42:09.139Z,13.14
2023-04-22T00:44:35.462Z,13.57
2023-04-22T00:47:01.824Z,14.64
2023-04-22T00:49:28.172Z,13.52
2023-04-22T00:51:54.497Z,12.98
2023-04-22T00:54:20.823Z,13.45
2023-04-22T00:56:47.168Z,13.67
2023-04-22T00:59:13.485Z,13.87
2023-04-22T01:01:39.793Z,13.85
2023-04-22T01:04:06.285Z,14.47
2023-04-22T01:06:32.760Z,15.22
2023-04-22T01:08:59.097Z,15.18
2023-04-22T01:11:25.417Z,14.93
2023-04-22T01:13:51.731Z,16.48
2023-04-22T01:16:18.179Z,16.58
2023-04-22T01:18:44.554Z,17.12
2023-04-22T01:21:10.893Z,16.10
2023-04-22T01:23:37.219Z,15.98
2023-04-22T01:26:03.536Z,16.99
2023-04-22T01:28:29.855Z,16.85
2023-04-22T01:30:56.209Z,15.14
2023-04-22T01:33:22.567Z,16.83
2023-04-22T01:35:48.918Z,16.66
2023-04-22T01:38:15.293Z,16.79
2023-04-22T01:40:41.617Z,17.34
2023-04-22T01:43:07.954Z,16.94
2023-04-22T01:45:34.295Z,16.45
2023-04-22T01:48:00.654Z,17.86
2023-04-22T01:50:26.983Z,18.81
2023-04-22T01:52:53.345Z,19.84
2023-04-22T01:55:19.667Z,19.06
2023-04-22T01:57:45.978Z,19.92
2023-04-22T02:00:12.322Z,19.84
2023-04-22T02:02:38.793Z,19.89
2023-04-22T02:05:05.227Z,20.20
2023-04-22T02:07:31.568Z,19.82
2023-04-22T02:09:57.897Z,19.44
2023-04-22T02:12:24.211Z,19.87
2023-04-22T02:14:50.534Z,19.89
2023-04-22T02:17:16.883Z,19.43
2023-04-22T02:19:43.433Z,20.78
2023-04-22T02:22:09.885Z,20.14
2023-04-22T02:24:36.221Z,20.69
2023-04-22T02:27:02.578Z,21.45
2023-04-22T02:29:28.940Z,20.98
2023-04-22T02:31:55.384Z,20.01
2023-04-22T02:34:21.726Z,22.22
2023-04-22T02:36:48.066Z,21.35
2023-04-22T02:39:14.391Z,21.53
2023-04-22T02:41:40.715Z,22.73
2023-04-22T02:44:07.043Z,22.20
2023-04-22T02:46:33.408Z,21.57
2023-04-22T02:48:59.765Z,21.72
2023-04-22T02:51:26.070Z,23.38
2023-04-22T02:53:52.371Z,22.69
2023-04-22T02:56:18.683Z,23.04
2023-04-22T02:58:45.008Z,21.71
2023-04-22T03:01:11.360Z,21.83
2023-04-22T03:03:37.866Z,21.18
2023-04-22T03:06:04.402Z,21.08
2023-04-22T03:08:30.731Z,20.01
2023-04-22T03:10:57.040Z,21.08
2023-04-22T03:13:23.372Z,21.64
2023-04-22T03:15:49.673Z,21.27
2023-04-22T03:18:15.997Z,21.38
2023-04-22T03:20:42.330Z,20.76
2023-04-22T03:23:08.671Z,19.89
2023-04-22T03:25:35.012Z,20.38
2023-04-22T03:28:01.341Z,20.53
2023-04-22T03:30:27.665Z,21.31
2023-04-22T03:32:54.041Z,21.10
2023-04-22T03:35:20.417Z,21.36
2023-04-22T03:37:46.733Z,21.44
2023-04-22T03:40:13.782Z,21.47
2023-04-22T03:42:40.270Z,20.79
2023-04-22T03:45:06.605Z,20.18
2023-04-22T03:47:32.942Z,21.83
2023-04-22T03:49:59.315Z,21.86
2023-04-22T03:52:25.654Z,21.81
2023-04-22T03:54:51.985Z,22.39
2023-04-22T03:57:18.297Z,20.51
2023-04-22T03:59:44.617Z,22.54
2023-04-22T04:02:11.019Z,23.84
2023-04-22T04:04:38.116Z,24.11
2023-04-22T04:07:04.629Z,23.60
2023-04-22T04:09:30.956Z,23.98
2023-04-22T04:11:57.289Z,24.65
2023-04-22T04:14:23.617Z,24.17
2023-04-22T04:16:49.941Z,24.81
2023-04-22T04:19:16.265Z,23.78
2023-04-22T04:21:42.645Z,23.54
2023-04-22T04:24:08.974Z,25.47
2023-04-22T04:26:35.310Z,25.89
2023-04-22T04:29:01.670Z,25.03
2023-04-22T04:31:28.025Z,24.86
2023-04-22T04:33:54.354Z,24.64
2023-04-22T04:36:20.658Z,24.33
2023-04-22T04:38:46.994Z,24.22
2023-04-22T04:41:13.305Z,24.76
2023-04-22T04:43:39.640Z,23.67
2023-04-22T04:46:06.006Z,23.08
2023-04-22T04:48:32.381Z,24.33
2023-04-22T04:50:58.716Z,24.49
2023-04-22T04:53:25.029Z,24.99
2023-04-22T04:55:51.373Z,26.80
2023-04-22T04:58:17.716Z,27.95
2023-04-22T05:00:44.052Z,26.96
2023-04-22T05:03:10.509Z,25.36
2023-04-22T05:05:36.933Z,26.52
2023-04-22T05:08:03.260Z,26.61
2023-04-22T05:10:29.595Z,25.94
2023-04-22T05:12:55.936Z,26.69
2023-04-22T05:15:22.280Z,27.47
2023-04-22T05:17:48.746Z,27.38
2023-04-22T05:20:15.187Z,27.28
2023-04-22T05:22:41.496Z,28.51
2023-04-22T05:25:07.834Z,28.20
2023-04-22T05:27:34.163Z,26.29
2023-04-22T05:30:00.495Z,26.97
2023-04-22T05:32:26.908Z,27.41
2023-04-22T05:34:53.273Z,26.29
2023-04-22T05:37:19.624Z,25.43
2023-04-22T05:39:45.958Z,22.60
2023-04-22T05:42:12.294Z,22.93
2023-04-22T05:44:38.621Z,23.14
2023-04-22T05:47:04.966Z,23.81
2023-04-22T05:49:31.300Z,27.08
2023-04-22T05:51:57.622Z,26.56
2023-04-22T05:54:23.961Z,26.00
2023-04-22T05:56:50.277Z,25.98
2023-04-22T05:59:17.438Z,26.24
2023-04-22T06:01:44.636Z,27.62
2023-04-22T06:04:11.039Z,26.78
2023-04-22T06:06:37.653Z,24.48
2023-04-22T06:09:03.982Z,24.97
2023-04-22T06:11:30.307Z,24.75
2023-04-22T06:13:56.642Z,26.24
2023-04-22T06:16:22.969Z,26.60
2023-04-22T06:18:49.304Z,24.74
2023-04-22T06:21:15.618Z,23.52
2023-04-22T06:23:41.954Z,23.45
2023-04-22T06:26:08.295Z,23.18
2023-04-22T06:28:34.607Z,24.06
2023-04-22T06:31:00.988Z,24.34
2023-04-22T06:33:27.325Z,24.97
2023-04-22T06:35:53.657Z,24.89
2023-04-22T06:38:19.975Z,25.64
2023-04-22T06:40:46.285Z,26.24
2023-04-22T06:43:12.648Z,26.49
2023-04-22T06:45:38.958Z,27.49
2023-04-22T06:48:05.280Z,27.68
2023-04-22T06:50:31.587Z,28.34
2023-04-22T06:52:57.898Z,29.08
2023-04-22T06:55:24.211Z,28.35
2023-04-22T06:57:50.556Z,27.88
2023-04-22T07:00:16.917Z,27.99
2023-04-22T07:02:43.339Z,29.86
2023-04-22T07:05:09.719Z,28.40
2023-04-22T07:07:36.055Z,28.10
2023-04-22T07:10:02.373Z,28.32
2023-04-22T07:12:28.705Z,28.00
2023-04-22T07:14:55.043Z,27.28
2023-04-22T07:17:21.400Z,28.39
2023-04-22T07:19:47.762Z,28.74
2023-04-22T07:22:14.097Z,28.85
2023-04-22T07:24:40.429Z,27.59
2023-04-22T07:27:06.764Z,28.48
2023-04-22T07:29:33.112Z,28.19
2023-04-22T07:31:59.538Z,28.14
2023-04-22T07:34:25.988Z,29.94
2023-04-22T07:36:52.336Z,28.17
2023-04-22T07:39:18.679Z,26.88
2023-04-22T07:41:44.988Z,25.59
2023-04-22T07:44:11.301Z,26.46
2023-04-22T07:46:37.626Z,27.09
2023-04-22T07:49:03.964Z,26.58
2023-04-22T07:51:30.292Z,26.38
2023-04-22T07:53:56.651Z,26.87
2023-04-22T07:56:22.972Z,26.18
2023-04-22T07:58:49.308Z,25.27
2023-04-22T08:01:16.272Z,25.15
2023-04-22T08:03:44.647Z,24.05
2023-04-22T08:06:11.161Z,24.41
2023-04-22T08:08:37.496Z,23.89
2023-04-22T08:11:03.831Z,23.32
2023-04-22T08:13:30.183Z,21.82
2023-04-22T08:15:56.591Z,21.04
2023-04-22T08:18:22.971Z,19.60
2023-04-22T08:20:49.303Z,19.33
2023-04-22T08:23:15.681Z,17.57
2023-04-22T08:25:42.009Z,17.35
2023-04-22T08:28:08.345Z,17.65
2023-04-22T08:30:34.671Z,18.77
2023-04-22T08:33:01.032Z,19.37
2023-04-22T08:35:27.361Z,18.77
2023-04-22T08:37:53.668Z,17.13
2023-04-22T08:40:19.981Z,18.21
2023-04-22T08:42:46.289Z,18.53
2023-04-22T08:45:12.622Z,15.69
2023-04-22T08:47:38.975Z,14.74
2023-04-22T08:50:05.332Z,15.18
2023-04-22T08:52:31.663Z,15.45
2023-04-22T08:54:57.990Z,15.12
2023-04-22T08:57:24.312Z,15.85
2023-04-22T08:59:50.628Z,17.09
2023-04-22T09:02:16.988Z,16.23
2023-04-22T09:04:43.348Z,15.46
2023-04-22T09:07:09.677Z,15.57
2023-04-22T09:09:36.045Z,16.96
2023-04-22T09:12:02.372Z,20.24
2023-04-22T09:14:28.699Z,23.11
2023-04-22T09:16:55.136Z,20.79
2023-04-22T09:19:21.507Z,19.24
2023-04-22T09:21:49.900Z,18.02
2023-04-22T09:24:17.186Z,18.58
2023-04-22T09:26:43.512Z,18.17
2023-04-22T09:29:09.828Z,18.94
2023-04-22T09:31:36.179Z,18.76
2023-04-22T09:34:02.548Z,19.45
2023-04-22T09:36:28.884Z,18.60
2023-04-22T09:38:55.225Z,19.67
2023-04-22T09:41:21.594Z,19.30
2023-04-22T09:43:47.923Z,19.46
2023-04-22T09:46:14.305Z,20.07
2023-04-22T09:48:40.674Z,18.69
2023-04-22T09:51:06.992Z,19.39
2023-04-22T09:53:33.321Z,18.84
2023-04-22T09:55:59.686Z,18.56
2023-04-22T09:58:26.034Z,18.39
2023-04-22T10:00:52.360Z,18.79
2023-04-22T10:03:18.788Z,19.13
2023-04-22T10:05:45.161Z,19.25
2023-04-22T10:08:11.571Z,18.89
2023-04-22T10:10:37.966Z,19.91
2023-04-22T10:13:04.306Z,21.02
2023-04-22T10:15:30.657Z,20.04
2023-04-22T10:17:57.078Z,20.26
2023-04-22T10:20:23.449Z,19.83
2023-04-22T10:22:49.771Z,19.71
2023-04-22T10:25:16.086Z,18.45
2023-04-22T10:27:42.409Z,18.06
2023-04-22T10:30:09.878Z,18.27
2023-04-22T10:32:36.201Z,18.06
2023-04-22T10:35:02.554Z,18.62
2023-04-22T10:37:28.901Z,17.58
2023-04-22T10:39:55.210Z,16.56
2023-04-22T10:42:21.534Z,18.05
2023-04-22T10:44:47.866Z,19.53
2023-04-22T10:47:14.209Z,20.83
2023-04-22T10:49:40.809Z,20.15
2023-04-22T10:52:07.363Z,19.25
2023-04-22T10:54:33.713Z,15.30
2023-04-22T10:57:00.062Z,13.97
2023-04-22T10:59:26.469Z,13.82
2023-04-22T11:01:52.955Z,13.81
2023-04-22T11:04:19.373Z,12.05
2023-04-22T11:06:45.742Z,12.59
2023-04-22T11:09:12.071Z,11.58
2023-04-22T11:11:38.383Z,11.45
2023-04-22T11:14:04.697Z,12.93
2023-04-22T11:16:31.086Z,13.12
2023-04-22T11:18:57.552Z,12.99
2023-04-22T11:21:23.874Z,13.41
2023-04-22T11:23:50.211Z,14.79
2023-04-22T11:26:16.540Z,14.79
2023-04-22T11:28:42.864Z,14.38
2023-04-22T11:31:09.243Z,13.44
2023-04-22T11:33:35.630Z,13.46
2023-04-22T11:36:02.011Z,13.86
2023-04-22T11:38:28.374Z,14.04
2023-04-22T11:40:54.726Z,13.84
2023-04-22T11:43:21.082Z,13.93
2023-04-22T11:45:47.550Z,15.34
2023-04-22T11:48:13.877Z,16.19
2023-04-22T11:50:40.215Z,15.28
2023-04-22T11:53:06.528Z,15.22
2023-04-22T11:55:32.871Z,15.28
2023-04-22T11:57:59.198Z,15.23
2023-04-22T12:00:25.533Z,15.20
2023-04-22T12:02:51.972Z,14.50
2023-04-22T12:05:18.431Z,14.82
2023-04-22T12:07:44.854Z,16.85
2023-04-22T12:10:11.163Z,14.22
2023-04-22T12:12:37.474Z,14.56
2023-04-22T12:15:03.799Z,14.85
2023-04-22T12:17:30.126Z,15.71
2023-04-22T12:19:56.438Z,15.69
2023-04-22T12:22:22.762Z,15.77
2023-04-22T12:24:49.087Z,16.02
2023-04-22T12:27:15.429Z,15.41
2023-04-22T12:29:41.742Z,15.22
2023-04-22T12:32:08.053Z,19.86
2023-04-22T12:34:34.372Z,16.64
2023-04-22T12:37:00.681Z,13.87
2023-04-22T12:39:27.004Z,14.73
2023-04-22T12:41:53.330Z,14.80
2023-04-22T12:44:19.641Z,14.67
2023-04-22T12:46:46.015Z,13.16
2023-04-22T12:49:12.391Z,13.21
2023-04-22T12:51:38.694Z,12.76
2023-04-22T12:54:05.016Z,13.07
2023-04-22T12:56:31.332Z,12.96
2023-04-22T12:58:57.636Z,12.21
2023-04-22T13:01:23.988Z,12.29
2023-04-22T13:03:50.614Z,12.10
2023-04-22T13:06:17.006Z,11.08
2023-04-22T13:08:43.340Z,11.17
2023-04-22T13:11:09.766Z,11.00
2023-04-22T13:13:36.111Z,9.60
2023-04-22T13:16:02.453Z,9.66
2023-04-22T13:18:28.808Z,10.50
2023-04-22T13:20:55.118Z,10.78
2023-04-22T13:23:21.568Z,9.41
2023-04-22T13:25:48.214Z,10.23
2023-04-22T13:28:14.522Z,9.64
2023-04-22T13:30:40.826Z,9.18
2023-04-22T13:33:07.186Z,9.78
2023-04-22T13:35:33.495Z,8.92
2023-04-22T13:37:59.814Z,7.63
2023-04-22T13:40:26.136Z,7.39
2023-04-22T13:42:52.468Z,7.70
2023-04-22T13:45:18.774Z,7.92
2023-04-22T13:47:45.082Z,8.64
2023-04-22T13:50:11.456Z,9.55
2023-04-22T13:52:37.766Z,12.38
2023-04-22T13:55:04.086Z,14.47
2023-04-22T13:57:30.414Z,16.20
2023-04-22T13:59:56.757Z,17.31
2023-04-22T14:02:23.159Z,17.52
2023-04-22T14:04:49.550Z,18.20
2023-04-22T14:07:15.913Z,18.10
2023-04-22T14:09:42.636Z,17.75
2023-04-22T14:12:09.266Z,18.74
2023-04-22T14:14:35.664Z,19.36
2023-04-22T14:17:02.112Z,19.27
2023-04-22T14:19:28.520Z,19.23
2023-04-22T14:21:54.849Z,20.69
2023-04-22T14:24:21.188Z,19.96
2023-04-22T14:26:47.596Z,19.47
2023-04-22T14:29:13.924Z,23.11
2023-04-22T14:31:40.252Z,18.89
2023-04-22T14:34:06.584Z,19.15
2023-04-22T14:36:32.916Z,20.81
2023-04-22T14:38:59.229Z,21.49
2023-04-22T14:41:25.585Z,18.09
2023-04-22T14:43:51.915Z,16.99
2023-04-22T14:46:18.300Z,19.84
2023-04-22T14:48:44.674Z,17.65
2023-04-22T14:51:11.014Z,17.06
2023-04-22T14:53:37.337Z,16.35
2023-04-22T14:56:03.692Z,16.74
2023-04-22T14:58:30.013Z,16.95
2023-04-22T15:00:56.344Z,17.12
2023-04-22T15:03:22.868Z,16.61
2023-04-22T15:05:49.367Z,16.74
2023-04-22T15:08:15.693Z,16.85
2023-04-22T15:10:42.029Z,14.70
2023-04-22T15:13:08.336Z,8.24
2023-04-22T15:15:34.717Z,6.58
2023-04-22T15:18:01.095Z,7.39
2023-04-22T15:20:27.437Z,5.67
2023-04-22T15:22:53.760Z,5.70
2023-04-22T15:25:20.095Z,5.46
2023-04-22T15:27:46.416Z,5.43
2023-04-22T15:30:12.713Z,6.53
2023-04-22T15:32:39.092Z,7.22
2023-04-22T15:35:05.537Z,8.55
2023-04-22T15:37:31.859Z,9.19
2023-04-22T15:39:58.181Z,11.06
2023-04-22T15:42:24.508Z,12.59
2023-04-22T15:44:50.829Z,12.42
2023-04-22T15:47:17.165Z,14.30
2023-04-22T15:49:43.489Z,14.22
2023-04-22T15:52:09.820Z,13.53
2023-04-22T15:54:36.139Z,12.94
2023-04-22T15:57:02.469Z,11.50
2023-04-22T15:59:28.802Z,11.18
2023-04-22T16:01:55.208Z,11.47
2023-04-22T16:04:21.759Z,10.94
2023-04-22T16:06:50.258Z,9.72
2023-04-22T16:09:17.167Z,8.53
2023-04-22T16:11:43.469Z,8.35
2023-04-22T16:14:09.809Z,8.22
2023-04-22T16:16:36.118Z,7.98
2023-04-22T16:19:02.457Z,8.05
2023-04-22T16:21:28.764Z,8.08
2023-04-22T16:23:55.130Z,7.51
2023-04-22T16:26:21.453Z,7.03
2023-04-22T16:28:47.790Z,6.75
2023-04-22T16:31:14.152Z,9.63
2023-04-22T16:33:40.530Z,11.90
2023-04-22T16:36:06.833Z,12.51
2023-04-22T16:38:33.150Z,12.97
2023-04-22T16:40:59.491Z,11.73
2023-04-22T16:43:25.827Z,10.45
2023-04-22T16:45:52.155Z,9.69
2023-04-22T16:48:18.476Z,10.96
2023-04-22T16:50:44.815Z,13.81
2023-04-22T16:53:11.117Z,13.03
2023-04-22T16:55:37.428Z,12.92
2023-04-22T16:58:03.759Z,13.13
2023-04-22T17:00:30.106Z,12.72
2023-04-22T17:02:56.492Z,12.88
2023-04-22T17:05:22.887Z,12.04
2023-04-22T17:07:49.212Z,11.86
2023-04-22T17:10:15.553Z,11.99
2023-04-22T17:12:41.927Z,11.30
2023-04-22T17:15:08.278Z,10.41
2023-04-22T17:17:34.615Z,10.41
2023-04-22T17:20:00.968Z,10.03
2023-04-22T17:22:27.288Z,10.38
2023-04-22T17:24:53.592Z,10.64
2023-04-22T17:27:19.915Z,11.19
2023-04-22T17:29:46.258Z,11.27
2023-04-22T17:32:12.583Z,10.78
2023-04-22T17:34:39.134Z,10.49
2023-04-22T17:37:05.700Z,10.31
2023-04-22T17:39:32.034Z,10.38
2023-04-22T17:41:58.359Z,11.82
2023-04-22T17:44:24.662Z,12.53
2023-04-22T17:46:51.065Z,11.25
2023-04-22T17:49:17.462Z,11.20
2023-04-22T17:51:43.776Z,11.22
2023-04-22T17:54:10.085Z,11.36
2023-04-22T17:56:36.399Z,11.42
2023-04-22T17:59:02.737Z,11.22
2023-04-22T18:01:29.065Z,12.06
2023-04-22T18:03:55.579Z,11.73
2023-04-22T18:06:22.034Z,11.94
2023-04-22T18:08:48.345Z,12.08
2023-04-22T18:11:14.674Z,9.58
2023-04-22T18:13:41.004Z,8.44
2023-04-22T18:16:07.360Z,8.11
2023-04-22T18:18:33.691Z,9.19
2023-04-22T18:21:00.015Z,8.97
2023-04-22T18:23:26.307Z,9.29
2023-04-22T18:25:52.621Z,8.75
2023-04-22T18:28:18.927Z,8.45
2023-04-22T18:30:45.252Z,8.10
2023-04-22T18:33:11.560Z,8.09
2023-04-22T18:35:37.901Z,7.69
2023-04-22T18:38:04.228Z,8.02
2023-04-22T18:40:30.560Z,8.59
2023-04-22T18:42:56.883Z,9.09
2023-04-22T18:45:23.269Z,9.60
2023-04-22T18:47:49.619Z,9.82
2023-04-22T18:50:15.936Z,9.31
2023-04-22T18:52:42.263Z,9.40
2023-04-22T18:55:08.582Z,9.14
2023-04-22T18:57:34.880Z,8.80
2023-04-22T19:00:01.221Z,9.14
2023-04-22T19:02:27.727Z,9.17
2023-04-22T19:04:54.162Z,9.14
2023-04-22T19:07:20.484Z,8.98
2023-04-22T19:09:46.810Z,9.33
2023-04-22T19:12:13.139Z,8.66
2023-04-22T19:14:39.572Z,8.38
2023-04-22T19:17:06.010Z,8.28
2023-04-22T19:19:32.330Z,8.42
2023-04-22T19:21:58.641Z,8.16
2023-04-22T19:24:24.961Z,8.43
2023-04-22T19:26:51.287Z,9.13
2023-04-22T19:29:17.610Z,8.96
2023-04-22T19:31:43.989Z,8.80
2023-04-22T19:34:10.387Z,8.90
2023-04-22T19:36:36.713Z,9.19
2023-04-22T19:39:03.026Z,9.55
2023-04-22T19:41:29.349Z,9.47
2023-04-22T19:43:55.672Z,9.21
2023-04-22T19:46:22.001Z,9.19
2023-04-22T19:48:48.341Z,9.47
2023-04-22T19:51:14.673Z,9.71
2023-04-22T19:53:40.991Z,9.95
2023-04-22T19:56:07.332Z,9.87
2023-04-22T19:58:33.664Z,10.10
2023-04-22T20:00:59.978Z,10.16
2023-04-22T20:03:26.447Z,10.15
2023-04-22T20:05:52.873Z,10.23
2023-04-22T20:08:19.224Z,10.19
2023-04-22T20:10:45.538Z,9.75
2023-04-22T20:13:11.848Z,9.47
2023-04-22T20:15:38.174Z,9.02
2023-04-22T20:18:04.578Z,8.46
2023-04-22T20:20:30.951Z,9.44
2023-04-22T20:22:57.291Z,10.04
2023-04-22T20:25:23.600Z,10.62
2023-04-22T20:27:49.916Z,10.78
2023-04-22T20:30:16.253Z,11.68
2023-04-22T20:32:42.605Z,12.22
2023-04-22T20:35:09.129Z,12.06
2023-04-22T20:37:35.456Z,12.40
2023-04-22T20:40:01.802Z,12.38
2023-04-22T20:42:28.144Z,12.13
2023-04-22T20:44:54.470Z,12.64
2023-04-22T20:47:20.958Z,12.64
2023-04-22T20:49:47.276Z,12.14
2023-04-22T20:52:13.582Z,12.26
2023-04-22T20:54:39.906Z,12.12
2023-04-22T20:57:06.221Z,11.95
2023-04-22T20:59:32.553Z,11.81
2023-04-22T21:01:58.914Z,11.61
2023-04-22T21:04:25.514Z,12.46
2023-04-22T21:06:52.021Z,13.94
2023-04-22T21:09:18.366Z,14.50
2023-04-22T21:11:44.700Z,15.08
2023-04-22T21:14:11.027Z,15.13
2023-04-22T21:16:37.403Z,15.54
2023-04-22T21:19:03.742Z,15.24
2023-04-22T21:21:30.053Z,15.27
2023-04-22T21:23:56.392Z,14.41
2023-04-22T21:26:22.768Z,14.14
2023-04-22T21:28:49.090Z,14.06
2023-04-22T21:31:15.452Z,13.31
2023-04-22T21:33:41.811Z,12.93
2023-04-22T21:36:08.126Z,12.43
2023-04-22T21:38:34.452Z,12.15
2023-04-22T21:41:00.788Z,11.41
2023-04-22T21:43:27.123Z,10.70
2023-04-22T21:45:53.450Z,10.90
2023-04-22T21:48:19.757Z,11.13
2023-04-22T21:50:46.096Z,10.76
2023-04-22T21:53:12.416Z,10.63
2023-04-22T21:55:38.738Z,11.28
2023-04-22T21:58:05.059Z,11.33
2023-04-22T22:00:31.406Z,11.79
2023-04-22T22:02:57.909Z,11.33
2023-04-22T22:05:24.291Z,11.39
2023-04-22T22:07:50.632Z,12.05
2023-04-22T22:10:16.959Z,13.19
2023-04-22T22:12:43.302Z,13.65
2023-04-22T22:15:09.622Z,13.45
2023-04-22T22:17:36.002Z,13.22
2023-04-22T22:20:02.333Z,12.75
2023-04-22T22:22:28.645Z,11.91
2023-04-22T22:24:55.030Z,10.88
2023-04-22T22:27:21.353Z,11.05
2023-04-22T22:29:47.663Z,12.02
2023-04-22T22:32:14.048Z,13.33
2023-04-22T22:34:40.760Z,12.72
2023-04-22T22:37:07.347Z,12.75
2023-04-22T22:39:33.676Z,13.16
2023-04-22T22:42:00.003Z,14.05
2023-04-22T22:44:26.336Z,13.52
2023-04-22T22:46:52.663Z,18.70
2023-04-22T22:49:18.977Z,15.34
2023-04-22T22:51:45.297Z,11.27
2023-04-22T22:54:11.671Z,9.07
2023-04-22T22:56:37.992Z,8.48
2023-04-22T22:59:04.338Z,8.16
2023-04-22T23:01:30.697Z,8.39
2023-04-22T23:03:57.258Z,7.92
2023-04-22T23:06:23.712Z,8.28
2023-04-22T23:08:50.020Z,8.49
2023-04-22T23:11:16.325Z,8.84
2023-04-22T23:13:42.629Z,8.69
2023-04-22T23:16:08.936Z,8.54
2023-04-22T23:18:35.237Z,8.14
2023-04-22T23:21:01.570Z,7.33
2023-04-22T23:23:27.891Z,7.08
2023-04-22T23:25:54.213Z,6.69
2023-04-22T23:28:20.544Z,6.89
2023-04-22T23:30:46.890Z,6.55
2023-04-22T23:33:13.210Z,6.48
2023-04-22T23:35:39.535Z,6.73
2023-04-22T23:38:05.840Z,6.63
2023-04-22T23:40:32.162Z,6.92
2023-04-22T23:42:58.482Z,6.41
2023-04-22T23:45:24.794Z,6.85
2023-04-22T23:47:51.159Z,7.13
2023-04-22T23:50:17.533Z,7.16
2023-04-22T23:52:43.868Z,6.84
2023-04-22T23:55:10.218Z,6.63
2023-04-22T23:57:36.554Z,6.30
